Terminal Aerodrome Forecast
Issued by NWS Wilmington, NC

Home | Current Version | Previous Version | Text Only | Print | Product List | Glossary On
Versions: 1 2 3 4 5 6 7 8 9 10 11 12 13 14 15 16 17
000
FTUS42 KILM 242327
TAFFLO
TAF
KFLO 242327Z 2500/2524 25007KT P6SM VCSH BKN050
     FM250400 22004KT P6SM BKN090
     FM250800 23004KT P6SM BKN003
     FM251000 28004KT 3SM BR BKN003
     FM251230 29005KT P6SM BKN003
     FM251400 33005KT P6SM BKN150
     FM252000 34005KT P6SM BKN035=

USA.gov is the U.S. government's official web portal to all federal, state and local government web resources and services.